37.0°F
Current conditions from King Hill
Updated every 5 minutes
 
  Friday October 24, 2014

Station Historical Data
Daily Summary for January 29, 2012 Units:  Both    English   Metric
« Previous Day
Next Day »
Daily Weekly Monthly Yearly Custom
  High: Low: Average:
Temperature: 32.6 °F /  0.3 °C 26.7 °F /  -2.9 °C 29.4 °F /  -1.4 °C
Dew Point: 27.3 °F /  -2.6 °C 15.1 °F /  -9.4 °C 20 °F /  -6.7 °C
Humidity: 86% 56% 68%
Wind Speed: 15.0mph /  24.1km/h - 5.5mph /  8.9km/h
Wind Gust: 29.0mph /  46.7km/h - -
Wind- - WSW
Pressure: 29.93 in /  1013.4 hPa 29.73 in /  1006.7 hPa -
Precipitation: 0.00 in /  0 mm    
Historical Graphs
 
 
Tabular Data for January 29, 2012
Time Temperature Dew Point Pressure Wind Wind Speed Wind Gust Humidity Daily Rainfall
00:04 31.0 °F /  -0.6 °C 27.3 °F /  -2.6 °C 29.73in /  1006.7hPa SW 7.0mph /  11.3km/h 16.0mph /  25.7km/h 86% 0.00in /  0mm
00:09 30.8 °F /  -0.7 °C 27.1 °F /  -2.7 °C 29.73in /  1006.7hPa SW 6.0mph /  9.7km/h 16.0mph /  25.7km/h 86% 0.00in /  0mm
00:14 30.7 °F /  -0.7 °C 27.0 °F /  -2.8 °C 29.74in /  1007hPa SW 5.0mph /  8km/h 14.0mph /  22.5km/h 86% 0.00in /  0mm
00:19 30.6 °F /  -0.8 °C 26.9 °F /  -2.8 °C 29.74in /  1007hPa SW 6.0mph /  9.7km/h 12.0mph /  19.3km/h 86% 0.00in /  0mm
00:24 30.6 °F /  -0.8 °C 26.1 °F /  -3.3 °C 29.74in /  1007hPa SW 7.0mph /  11.3km/h 12.0mph /  19.3km/h 83% 0.00in /  0mm
00:29 30.6 °F /  -0.8 °C 25.8 °F /  -3.4 °C 29.74in /  1007hPa SW 6.0mph /  9.7km/h 13.0mph /  20.9km/h 82% 0.00in /  0mm
00:34 30.5 °F /  -0.8 °C 25.1 °F /  -3.8 °C 29.74in /  1007hPa West 7.0mph /  11.3km/h 15.0mph /  24.1km/h 80% 0.00in /  0mm
00:44 30.5 °F /  -0.8 °C 23.8 °F /  -4.6 °C 29.74in /  1007hPa WSW 5.0mph /  8km/h 16.0mph /  25.7km/h 76% 0.00in /  0mm
00:49 30.5 °F /  -0.8 °C 23.8 °F /  -4.6 °C 29.75in /  1007.3hPa WSW 4.0mph /  6.4km/h 13.0mph /  20.9km/h 76% 0.00in /  0mm
00:54 30.7 °F /  -0.7 °C 23.4 °F /  -4.8 °C 29.75in /  1007.3hPa SW 4.0mph /  6.4km/h 13.0mph /  20.9km/h 74% 0.00in /  0mm
00:59 30.8 °F /  -0.7 °C 23.2 °F /  -4.9 °C 29.75in /  1007.3hPa Calm   8.0mph /  12.9km/h 73% 0.00in /  0mm
01:04 30.7 °F /  -0.7 °C 22.7 °F /  -5.2 °C 29.75in /  1007.3hPa WSW 8.0mph /  12.9km/h 15.0mph /  24.1km/h 72% 0.00in /  0mm
01:10 30.6 °F /  -0.8 °C 22.7 °F /  -5.2 °C 29.75in /  1007.3hPa WSW 9.0mph /  14.5km/h 18.0mph /  29km/h 72% 0.00in /  0mm
01:15 30.8 °F /  -0.7 °C 22.5 °F /  -5.3 °C 29.76in /  1007.7hPa SW 5.0mph /  8km/h 18.0mph /  29km/h 71% 0.00in /  0mm
01:20 31.0 °F /  -0.6 °C 23.0 °F /  -5 °C 29.76in /  1007.7hPa SW 3.0mph /  4.8km/h 13.0mph /  20.9km/h 72% 0.00in /  0mm
01:25 31.0 °F /  -0.6 °C 22.4 °F /  -5.3 °C 29.76in /  1007.7hPa SW 10.0mph /  16.1km/h 18.0mph /  29km/h 70% 0.00in /  0mm
01:30 31.0 °F /  -0.6 °C 22.4 °F /  -5.3 °C 29.77in /  1008hPa WSW 10.0mph /  16.1km/h 21.0mph /  33.8km/h 70% 0.00in /  0mm
01:35 30.9 °F /  -0.6 °C 21.6 °F /  -5.8 °C 29.77in /  1008hPa SW 7.0mph /  11.3km/h 21.0mph /  33.8km/h 68% 0.00in /  0mm
01:40 30.8 °F /  -0.7 °C 20.8 °F /  -6.2 °C 29.77in /  1008hPa WSW 9.0mph /  14.5km/h 19.0mph /  30.6km/h 66% 0.00in /  0mm
01:45 30.7 °F /  -0.7 °C 20.3 °F /  -6.5 °C 29.77in /  1008hPa SW 9.0mph /  14.5km/h 19.0mph /  30.6km/h 65% 0.00in /  0mm
01:50 30.5 °F /  -0.8 °C 19.4 °F /  -7 °C 29.77in /  1008hPa West 9.0mph /  14.5km/h 21.0mph /  33.8km/h 63% 0.00in /  0mm
01:55 30.2 °F /  -1 °C 18.0 °F /  -7.8 °C 29.78in /  1008.4hPa WSW 15.0mph /  24.1km/h 23.0mph /  37km/h 60% 0.00in /  0mm
02:00 30.3 °F /  -0.9 °C 17.7 °F /  -7.9 °C 29.78in /  1008.4hPa WSW 10.0mph /  16.1km/h 23.0mph /  37km/h 59% 0.00in /  0mm
02:05 30.1 °F /  -1.1 °C 17.1 °F /  -8.3 °C 29.78in /  1008.4hPa SW 11.0mph /  17.7km/h 24.0mph /  38.6km/h 58% 0.00in /  0mm
02:10 30.0 °F /  -1.1 °C 17.4 °F /  -8.1 °C 29.78in /  1008.4hPa WSW 7.0mph /  11.3km/h 24.0mph /  38.6km/h 59% 0.00in /  0mm
02:15 30.0 °F /  -1.1 °C 17.4 °F /  -8.1 °C 29.79in /  1008.7hPa WSW 8.0mph /  12.9km/h 22.0mph /  35.4km/h 59% 0.00in /  0mm
02:20 30.1 °F /  -1.1 °C 16.7 °F /  -8.5 °C 29.79in /  1008.7hPa WSW 9.0mph /  14.5km/h 22.0mph /  35.4km/h 57% 0.00in /  0mm
02:25 30.2 °F /  -1 °C 17.6 °F /  -8 °C 29.80in /  1009hPa WSW 9.0mph /  14.5km/h 19.0mph /  30.6km/h 59% 0.00in /  0mm
02:30 30.2 °F /  -1 °C 19.9 °F /  -6.7 °C 29.80in /  1009hPa SW 5.0mph /  8km/h 17.0mph /  27.4km/h 65% 0.00in /  0mm
02:40 29.9 °F /  -1.2 °C 19.9 °F /  -6.7 °C 29.80in /  1009hPa WSW 4.0mph /  6.4km/h 18.0mph /  29km/h 66% 0.00in /  0mm
02:50 29.9 °F /  -1.2 °C 16.9 °F /  -8.4 °C 29.80in /  1009hPa WSW 7.0mph /  11.3km/h 18.0mph /  29km/h 58% 0.00in /  0mm
02:55 29.8 °F /  -1.2 °C 16.4 °F /  -8.7 °C 29.80in /  1009hPa WSW 9.0mph /  14.5km/h 18.0mph /  29km/h 57% 0.00in /  0mm
03:00 29.6 °F /  -1.3 °C 15.8 °F /  -9 °C 29.80in /  1009hPa WSW 12.0mph /  19.3km/h 21.0mph /  33.8km/h 56% 0.00in /  0mm
03:05 29.4 °F /  -1.4 °C 16.0 °F /  -8.9 °C 29.80in /  1009hPa WSW 6.0mph /  9.7km/h 21.0mph /  33.8km/h 57% 0.00in /  0mm
03:10 29.3 °F /  -1.5 °C 16.4 °F /  -8.7 °C 29.81in /  1009.4hPa West 7.0mph /  11.3km/h 17.0mph /  27.4km/h 58% 0.00in /  0mm
03:15 29.2 °F /  -1.6 °C 16.3 °F /  -8.7 °C 29.81in /  1009.4hPa WSW 6.0mph /  9.7km/h 15.0mph /  24.1km/h 58% 0.00in /  0mm
03:20 29.1 °F /  -1.6 °C 16.6 °F /  -8.6 °C 29.81in /  1009.4hPa WSW 6.0mph /  9.7km/h 15.0mph /  24.1km/h 59% 0.00in /  0mm
03:25 29.1 °F /  -1.6 °C 16.6 °F /  -8.6 °C 29.82in /  1009.7hPa West 13.0mph /  20.9km/h 22.0mph /  35.4km/h 59% 0.00in /  0mm
03:30 29.0 °F /  -1.7 °C 16.5 °F /  -8.6 °C 29.82in /  1009.7hPa SW 8.0mph /  12.9km/h 22.0mph /  35.4km/h 59% 0.00in /  0mm
03:40 28.7 °F /  -1.8 °C 16.2 °F /  -8.8 °C 29.82in /  1009.7hPa WSW 10.0mph /  16.1km/h 20.0mph /  32.2km/h 59% 0.00in /  0mm
03:45 28.6 °F /  -1.9 °C 16.1 °F /  -8.8 °C 29.82in /  1009.7hPa West 9.0mph /  14.5km/h 16.0mph /  25.7km/h 59% 0.00in /  0mm
03:50 28.5 °F /  -1.9 °C 16.0 °F /  -8.9 °C 29.83in /  1010hPa WSW 9.0mph /  14.5km/h 23.0mph /  37km/h 59% 0.00in /  0mm
03:55 28.5 °F /  -1.9 °C 16.0 °F /  -8.9 °C 29.82in /  1009.7hPa WSW 7.0mph /  11.3km/h 23.0mph /  37km/h 59% 0.00in /  0mm
04:00 28.5 °F /  -1.9 °C 15.6 °F /  -9.1 °C 29.83in /  1010hPa WSW 9.0mph /  14.5km/h 21.0mph /  33.8km/h 58% 0.00in /  0mm
04:05 28.2 °F /  -2.1 °C 15.7 °F /  -9.1 °C 29.83in /  1010hPa West 8.0mph /  12.9km/h 21.0mph /  33.8km/h 59% 0.00in /  0mm
04:10 28.2 °F /  -2.1 °C 16.1 °F /  -8.8 °C 29.83in /  1010hPa WSW 9.0mph /  14.5km/h 19.0mph /  30.6km/h 60% 0.00in /  0mm
04:15 28.2 °F /  -2.1 °C 16.1 °F /  -8.8 °C 29.83in /  1010hPa WSW 12.0mph /  19.3km/h 22.0mph /  35.4km/h 60% 0.00in /  0mm
04:20 28.0 °F /  -2.2 °C 16.3 °F /  -8.7 °C 29.83in /  1010hPa WSW 8.0mph /  12.9km/h 22.0mph /  35.4km/h 61% 0.00in /  0mm
04:25 27.9 °F /  -2.3 °C 16.2 °F /  -8.8 °C 29.84in /  1010.4hPa WSW 9.0mph /  14.5km/h 17.0mph /  27.4km/h 61% 0.00in /  0mm
04:35 27.8 °F /  -2.3 °C 16.5 °F /  -8.6 °C 29.83in /  1010hPa WSW 8.0mph /  12.9km/h 20.0mph /  32.2km/h 62% 0.00in /  0mm
04:40 27.7 °F /  -2.4 °C 16.4 °F /  -8.7 °C 29.84in /  1010.4hPa West 10.0mph /  16.1km/h 19.0mph /  30.6km/h 62% 0.00in /  0mm
04:45 27.8 °F /  -2.3 °C 16.5 °F /  -8.6 °C 29.84in /  1010.4hPa WSW 9.0mph /  14.5km/h 19.0mph /  30.6km/h 62% 0.00in /  0mm
04:50 28.0 °F /  -2.2 °C 16.3 °F /  -8.7 °C 29.84in /  1010.4hPa WSW 10.0mph /  16.1km/h 23.0mph /  37km/h 61% 0.00in /  0mm
04:55 27.8 °F /  -2.3 °C 16.1 °F /  -8.8 °C 29.84in /  1010.4hPa WSW 11.0mph /  17.7km/h 25.0mph /  40.2km/h 61% 0.00in /  0mm
05:00 27.7 °F /  -2.4 °C 16.4 °F /  -8.7 °C 29.84in /  1010.4hPa West 9.0mph /  14.5km/h 25.0mph /  40.2km/h 62% 0.00in /  0mm
05:05 27.7 °F /  -2.4 °C 16.0 °F /  -8.9 °C 29.84in /  1010.4hPa WSW 10.0mph /  16.1km/h 21.0mph /  33.8km/h 61% 0.00in /  0mm
05:10 27.6 °F /  -2.4 °C 16.3 °F /  -8.7 °C 29.84in /  1010.4hPa WSW 12.0mph /  19.3km/h 20.0mph /  32.2km/h 62% 0.00in /  0mm
05:15 27.7 °F /  -2.4 °C 16.4 °F /  -8.7 °C 29.85in /  1010.7hPa WSW 12.0mph /  19.3km/h 22.0mph /  35.4km/h 62% 0.00in /  0mm
05:20 27.7 °F /  -2.4 °C 16.0 °F /  -8.9 °C 29.85in /  1010.7hPa West 13.0mph /  20.9km/h 22.0mph /  35.4km/h 61% 0.00in /  0mm
05:25 27.6 °F /  -2.4 °C 16.3 °F /  -8.7 °C 29.85in /  1010.7hPa West 7.0mph /  11.3km/h 22.0mph /  35.4km/h 62% 0.00in /  0mm
05:30 27.5 °F /  -2.5 °C 15.8 °F /  -9 °C 29.86in /  1011.1hPa West 10.0mph /  16.1km/h 27.0mph /  43.5km/h 61% 0.00in /  0mm
05:35 27.5 °F /  -2.5 °C 15.8 °F /  -9 °C 29.86in /  1011.1hPa WSW 9.0mph /  14.5km/h 27.0mph /  43.5km/h 61% 0.00in /  0mm
05:40 27.5 °F /  -2.5 °C 15.8 °F /  -9 °C 29.86in /  1011.1hPa WSW 14.0mph /  22.5km/h 29.0mph /  46.7km/h 61% 0.00in /  0mm
05:45 27.5 °F /  -2.5 °C 15.4 °F /  -9.2 °C 29.86in /  1011.1hPa WSW 11.0mph /  17.7km/h 29.0mph /  46.7km/h 60% 0.00in /  0mm
05:50 27.4 °F /  -2.6 °C 15.7 °F /  -9.1 °C 29.86in /  1011.1hPa WSW 12.0mph /  19.3km/h 21.0mph /  33.8km/h 61% 0.00in /  0mm
05:55 27.3 °F /  -2.6 °C 15.6 °F /  -9.1 °C 29.86in /  1011.1hPa West 8.0mph /  12.9km/h 17.0mph /  27.4km/h 61% 0.00in /  0mm
05:59 27.3 °F /  -2.6 °C 15.6 °F /  -9.1 °C 29.87in /  1011.4hPa WSW 10.0mph /  16.1km/h 18.0mph /  29km/h 61% 0.00in /  0mm
06:05 27.2 °F /  -2.7 °C 15.9 °F /  -8.9 °C 29.87in /  1011.4hPa West 12.0mph /  19.3km/h 21.0mph /  33.8km/h 62% 0.00in /  0mm
06:10 27.1 °F /  -2.7 °C 15.8 °F /  -9 °C 29.87in /  1011.4hPa West 7.0mph /  11.3km/h 21.0mph /  33.8km/h 62% 0.00in /  0mm
06:15 26.9 °F /  -2.8 °C 15.6 °F /  -9.1 °C 29.88in /  1011.7hPa WSW 9.0mph /  14.5km/h 17.0mph /  27.4km/h 62% 0.00in /  0mm
06:20 27.0 °F /  -2.8 °C 15.7 °F /  -9.1 °C 29.87in /  1011.4hPa WSW 12.0mph /  19.3km/h 20.0mph /  32.2km/h 62% 0.00in /  0mm
06:25 27.1 °F /  -2.7 °C 15.8 °F /  -9 °C 29.88in /  1011.7hPa WSW 8.0mph /  12.9km/h 20.0mph /  32.2km/h 62% 0.00in /  0mm
06:30 27.0 °F /  -2.8 °C 15.7 °F /  -9.1 °C 29.89in /  1012.1hPa WSW 8.0mph /  12.9km/h 19.0mph /  30.6km/h 62% 0.00in /  0mm
06:35 27.0 °F /  -2.8 °C 15.7 °F /  -9.1 °C 29.88in /  1011.7hPa West 8.0mph /  12.9km/h 19.0mph /  30.6km/h 62% 0.00in /  0mm
06:40 27.1 °F /  -2.7 °C 15.8 °F /  -9 °C 29.89in /  1012.1hPa West 10.0mph /  16.1km/h 15.0mph /  24.1km/h 62% 0.00in /  0mm
06:45 27.1 °F /  -2.7 °C 15.8 °F /  -9 °C 29.89in /  1012.1hPa WSW 6.0mph /  9.7km/h 15.0mph /  24.1km/h 62% 0.00in /  0mm
06:50 27.0 °F /  -2.8 °C 15.7 °F /  -9.1 °C 29.89in /  1012.1hPa WSW 9.0mph /  14.5km/h 16.0mph /  25.7km/h 62% 0.00in /  0mm
06:55 26.9 °F /  -2.8 °C 15.6 °F /  -9.1 °C 29.89in /  1012.1hPa WSW 6.0mph /  9.7km/h 16.0mph /  25.7km/h 62% 0.00in /  0mm
07:00 27.0 °F /  -2.8 °C 15.7 °F /  -9.1 °C 29.89in /  1012.1hPa WSW 7.0mph /  11.3km/h 14.0mph /  22.5km/h 62% 0.00in /  0mm
07:05 27.0 °F /  -2.8 °C 15.7 °F /  -9.1 °C 29.89in /  1012.1hPa WSW 9.0mph /  14.5km/h 20.0mph /  32.2km/h 62% 0.00in /  0mm
07:10 27.1 °F /  -2.7 °C 15.4 °F /  -9.2 °C 29.89in /  1012.1hPa WSW 6.0mph /  9.7km/h 20.0mph /  32.2km/h 61% 0.00in /  0mm
07:14 27.0 °F /  -2.8 °C 15.3 °F /  -9.3 °C 29.89in /  1012.1hPa WSW 9.0mph /  14.5km/h 16.0mph /  25.7km/h 61% 0.00in /  0mm
07:20 27.0 °F /  -2.8 °C 15.3 °F /  -9.3 °C 29.90in /  1012.4hPa SW 6.0mph /  9.7km/h 14.0mph /  22.5km/h 61% 0.00in /  0mm
07:25 27.1 °F /  -2.7 °C 15.4 °F /  -9.2 °C 29.90in /  1012.4hPa WSW 6.0mph /  9.7km/h 14.0mph /  22.5km/h 61% 0.00in /  0mm
07:30 27.1 °F /  -2.7 °C 15.4 °F /  -9.2 °C 29.90in /  1012.4hPa WSW 9.0mph /  14.5km/h 19.0mph /  30.6km/h 61% 0.00in /  0mm
07:34 27.1 °F /  -2.7 °C 15.4 °F /  -9.2 °C 29.90in /  1012.4hPa WSW 6.0mph /  9.7km/h 20.0mph /  32.2km/h 61% 0.00in /  0mm
07:40 27.1 °F /  -2.7 °C 15.1 °F /  -9.4 °C 29.91in /  1012.8hPa WSW 7.0mph /  11.3km/h 20.0mph /  32.2km/h 60% 0.00in /  0mm
07:45 27.2 °F /  -2.7 °C 15.1 °F /  -9.4 °C 29.90in /  1012.4hPa SW 5.0mph /  8km/h 13.0mph /  20.9km/h 60% 0.00in /  0mm
07:50 27.0 °F /  -2.8 °C 15.3 °F /  -9.3 °C 29.91in /  1012.8hPa WSW 7.0mph /  11.3km/h 13.0mph /  20.9km/h 61% 0.00in /  0mm
08:00 27.1 °F /  -2.7 °C 15.4 °F /  -9.2 °C 29.91in /  1012.8hPa WSW 7.0mph /  11.3km/h 13.0mph /  20.9km/h 61% 0.00in /  0mm
08:05 27.0 °F /  -2.8 °C 15.3 °F /  -9.3 °C 29.91in /  1012.8hPa West 6.0mph /  9.7km/h 13.0mph /  20.9km/h 61% 0.00in /  0mm
08:10 27.0 °F /  -2.8 °C 15.3 °F /  -9.3 °C 29.92in /  1013.1hPa WSW 6.0mph /  9.7km/h 13.0mph /  20.9km/h 61% 0.00in /  0mm
08:14 27.2 °F /  -2.7 °C 15.5 °F /  -9.2 °C 29.92in /  1013.1hPa WSW 5.0mph /  8km/h 14.0mph /  22.5km/h 61% 0.00in /  0mm
08:20 27.3 °F /  -2.6 °C 15.6 °F /  -9.1 °C 29.92in /  1013.1hPa WSW 6.0mph /  9.7km/h 19.0mph /  30.6km/h 61% 0.00in /  0mm
08:25 27.4 °F /  -2.6 °C 15.7 °F /  -9.1 °C 29.92in /  1013.1hPa WSW 7.0mph /  11.3km/h 19.0mph /  30.6km/h 61% 0.00in /  0mm
08:30 27.4 °F /  -2.6 °C 16.1 °F /  -8.8 °C 29.92in /  1013.1hPa WSW 6.0mph /  9.7km/h 17.0mph /  27.4km/h 62% 0.00in /  0mm
08:35 27.7 °F /  -2.4 °C 16.4 °F /  -8.7 °C 29.92in /  1013.1hPa WSW 8.0mph /  12.9km/h 15.0mph /  24.1km/h 62% 0.00in /  0mm
08:40 27.9 °F /  -2.3 °C 16.2 °F /  -8.8 °C 29.92in /  1013.1hPa WSW 7.0mph /  11.3km/h 15.0mph /  24.1km/h 61% 0.00in /  0mm
08:45 28.2 °F /  -2.1 °C 16.5 °F /  -8.6 °C 29.93in /  1013.4hPa WSW 10.0mph /  16.1km/h 20.0mph /  32.2km/h 61% 0.00in /  0mm
08:50 28.3 °F /  -2.1 °C 16.2 °F /  -8.8 °C 29.92in /  1013.1hPa WSW 8.0mph /  12.9km/h 20.0mph /  32.2km/h 60% 0.00in /  0mm
08:55 28.4 °F /  -2 °C 16.3 °F /  -8.7 °C 29.92in /  1013.1hPa West 10.0mph /  16.1km/h 16.0mph /  25.7km/h 60% 0.00in /  0mm
09:00 28.7 °F /  -1.8 °C 16.2 °F /  -8.8 °C 29.92in /  1013.1hPa WSW 9.0mph /  14.5km/h 16.0mph /  25.7km/h 59% 0.00in /  0mm
09:05 28.8 °F /  -1.8 °C 16.3 °F /  -8.7 °C 29.92in /  1013.1hPa West 7.0mph /  11.3km/h 16.0mph /  25.7km/h 59% 0.00in /  0mm
09:09 28.8 °F /  -1.8 °C 16.3 °F /  -8.7 °C 29.92in /  1013.1hPa West 6.0mph /  9.7km/h 16.0mph /  25.7km/h 59% 0.00in /  0mm
09:15 29.0 °F /  -1.7 °C 16.5 °F /  -8.6 °C 29.92in /  1013.1hPa SW 5.0mph /  8km/h 12.0mph /  19.3km/h 59% 0.00in /  0mm
09:20 29.6 °F /  -1.3 °C 16.6 °F /  -8.6 °C 29.92in /  1013.1hPa West 4.0mph /  6.4km/h 13.0mph /  20.9km/h 58% 0.00in /  0mm
09:25 29.9 °F /  -1.2 °C 16.9 °F /  -8.4 °C 29.92in /  1013.1hPa West 3.0mph /  4.8km/h 13.0mph /  20.9km/h 58% 0.00in /  0mm
09:30 30.3 °F /  -0.9 °C 18.5 °F /  -7.5 °C 29.92in /  1013.1hPa WSW 1.0mph /  1.6km/h 10.0mph /  16.1km/h 61% 0.00in /  0mm
09:35 30.1 °F /  -1.1 °C 18.7 °F /  -7.4 °C 29.92in /  1013.1hPa SW 2.0mph /  3.2km/h 8.0mph /  12.9km/h 62% 0.00in /  0mm
09:40 29.7 °F /  -1.3 °C 18.6 °F /  -7.4 °C 29.92in /  1013.1hPa SW 5.0mph /  8km/h 9.0mph /  14.5km/h 63% 0.00in /  0mm
09:45 29.1 °F /  -1.6 °C 19.2 °F /  -7.1 °C 29.92in /  1013.1hPa SW 7.0mph /  11.3km/h 11.0mph /  17.7km/h 66% 0.00in /  0mm
09:50 28.8 °F /  -1.8 °C 19.6 °F /  -6.9 °C 29.92in /  1013.1hPa SW 5.0mph /  8km/h 11.0mph /  17.7km/h 68% 0.00in /  0mm
09:55 28.8 °F /  -1.8 °C 19.6 °F /  -6.9 °C 29.92in /  1013.1hPa SSW 5.0mph /  8km/h 10.0mph /  16.1km/h 68% 0.00in /  0mm
09:59 28.8 °F /  -1.8 °C 19.6 °F /  -6.9 °C 29.92in /  1013.1hPa SW 5.0mph /  8km/h 10.0mph /  16.1km/h 68% 0.00in /  0mm
10:04 28.8 °F /  -1.8 °C 19.6 °F /  -6.9 °C 29.93in /  1013.4hPa WSW 5.0mph /  8km/h 11.0mph /  17.7km/h 68% 0.00in /  0mm
10:10 28.8 °F /  -1.8 °C 19.9 °F /  -6.7 °C 29.92in /  1013.1hPa WSW 5.0mph /  8km/h 11.0mph /  17.7km/h 69% 0.00in /  0mm
10:15 28.8 °F /  -1.8 °C 19.9 °F /  -6.7 °C 29.92in /  1013.1hPa WSW 2.0mph /  3.2km/h 9.0mph /  14.5km/h 69% 0.00in /  0mm
10:19 28.9 °F /  -1.7 °C 20.0 °F /  -6.7 °C 29.92in /  1013.1hPa WSW 6.0mph /  9.7km/h 11.0mph /  17.7km/h 69% 0.00in /  0mm
10:25 28.9 °F /  -1.7 °C 20.0 °F /  -6.7 °C 29.93in /  1013.4hPa SW 4.0mph /  6.4km/h 11.0mph /  17.7km/h 69% 0.00in /  0mm
10:35 29.0 °F /  -1.7 °C 19.8 °F /  -6.8 °C 29.92in /  1013.1hPa WSW 6.0mph /  9.7km/h 20.0mph /  32.2km/h 68% 0.00in /  0mm
10:45 29.1 °F /  -1.6 °C 19.5 °F /  -6.9 °C 29.93in /  1013.4hPa WSW 6.0mph /  9.7km/h 15.0mph /  24.1km/h 67% 0.00in /  0mm
10:49 29.0 °F /  -1.7 °C 19.1 °F /  -7.2 °C 29.93in /  1013.4hPa WSW 8.0mph /  12.9km/h 17.0mph /  27.4km/h 66% 0.00in /  0mm
10:55 28.9 °F /  -1.7 °C 19.0 °F /  -7.2 °C 29.93in /  1013.4hPa West 8.0mph /  12.9km/h 17.0mph /  27.4km/h 66% 0.00in /  0mm
11:00 28.8 °F /  -1.8 °C 19.2 °F /  -7.1 °C 29.93in /  1013.4hPa WSW 7.0mph /  11.3km/h 25.0mph /  40.2km/h 67% 0.00in /  0mm
11:05 28.8 °F /  -1.8 °C 19.6 °F /  -6.9 °C 29.93in /  1013.4hPa West 3.0mph /  4.8km/h 25.0mph /  40.2km/h 68% 0.00in /  0mm
11:09 28.7 °F /  -1.8 °C 19.8 °F /  -6.8 °C 29.93in /  1013.4hPa WSW 7.0mph /  11.3km/h 14.0mph /  22.5km/h 69% 0.00in /  0mm
11:15 28.3 °F /  -2.1 °C 20.8 °F /  -6.2 °C 29.93in /  1013.4hPa WSW 6.0mph /  9.7km/h 14.0mph /  22.5km/h 73% 0.00in /  0mm
11:20 27.8 °F /  -2.3 °C 20.9 °F /  -6.2 °C 29.92in /  1013.1hPa West 6.0mph /  9.7km/h 13.0mph /  20.9km/h 75% 0.00in /  0mm
11:29 27.0 °F /  -2.8 °C 21.4 °F /  -5.9 °C 29.92in /  1013.1hPa West 6.0mph /  9.7km/h 14.0mph /  22.5km/h 79% 0.00in /  0mm
11:35 26.8 °F /  -2.9 °C 21.5 °F /  -5.8 °C 29.92in /  1013.1hPa WNW 6.0mph /  9.7km/h 15.0mph /  24.1km/h 80% 0.00in /  0mm
11:40 26.8 °F /  -2.9 °C 22.0 °F /  -5.6 °C 29.92in /  1013.1hPa West 5.0mph /  8km/h 15.0mph /  24.1km/h 82% 0.00in /  0mm
11:45 26.7 °F /  -2.9 °C 21.9 °F /  -5.6 °C 29.91in /  1012.8hPa West 6.0mph /  9.7km/h 11.0mph /  17.7km/h 82% 0.00in /  0mm
11:50 26.7 °F /  -2.9 °C 22.2 °F /  -5.4 °C 29.91in /  1012.8hPa West 5.0mph /  8km/h 11.0mph /  17.7km/h 83% 0.00in /  0mm
11:55 26.9 °F /  -2.8 °C 22.4 °F /  -5.3 °C 29.91in /  1012.8hPa West 3.0mph /  4.8km/h 9.0mph /  14.5km/h 83% 0.00in /  0mm
12:00 27.2 °F /  -2.7 °C 22.7 °F /  -5.2 °C 29.91in /  1012.8hPa WNW 5.0mph /  8km/h 8.0mph /  12.9km/h 83% 0.00in /  0mm
12:04 27.6 °F /  -2.4 °C 23.4 °F /  -4.8 °C 29.91in /  1012.8hPa West 3.0mph /  4.8km/h 10.0mph /  16.1km/h 84% 0.00in /  0mm
12:10 28.3 °F /  -2.1 °C 24.1 °F /  -4.4 °C 29.91in /  1012.8hPa WNW 3.0mph /  4.8km/h 10.0mph /  16.1km/h 84% 0.00in /  0mm
12:15 28.4 °F /  -2 °C 23.6 °F /  -4.7 °C 29.90in /  1012.4hPa WNW 5.0mph /  8km/h 7.0mph /  11.3km/h 82% 0.00in /  0mm
12:19 28.5 °F /  -1.9 °C 23.7 °F /  -4.6 °C 29.90in /  1012.4hPa West 1.0mph /  1.6km/h 7.0mph /  11.3km/h 82% 0.00in /  0mm
12:25 28.7 °F /  -1.8 °C 23.6 °F /  -4.7 °C 29.90in /  1012.4hPa WNW 4.0mph /  6.4km/h 8.0mph /  12.9km/h 81% 0.00in /  0mm
12:30 28.9 °F /  -1.7 °C 23.8 °F /  -4.6 °C 29.90in /  1012.4hPa WNW 3.0mph /  4.8km/h 8.0mph /  12.9km/h 81% 0.00in /  0mm
12:35 29.2 °F /  -1.6 °C 23.8 °F /  -4.6 °C 29.89in /  1012.1hPa WNW 2.0mph /  3.2km/h 5.0mph /  8km/h 80% 0.00in /  0mm
12:39 29.2 °F /  -1.6 °C 23.5 °F /  -4.7 °C 29.89in /  1012.1hPa WNW 4.0mph /  6.4km/h 7.0mph /  11.3km/h 79% 0.00in /  0mm
12:45 28.8 °F /  -1.8 °C 22.8 °F /  -5.1 °C 29.89in /  1012.1hPa WNW 2.0mph /  3.2km/h 7.0mph /  11.3km/h 78% 0.00in /  0mm
12:50 28.8 °F /  -1.8 °C 22.8 °F /  -5.1 °C 29.89in /  1012.1hPa WNW 1.0mph /  1.6km/h 4.0mph /  6.4km/h 78% 0.00in /  0mm
12:55 28.9 °F /  -1.7 °C 22.9 °F /  -5.1 °C 29.88in /  1011.7hPa WNW 2.0mph /  3.2km/h 3.0mph /  4.8km/h 78% 0.00in /  0mm
12:59 29.2 °F /  -1.6 °C 22.9 °F /  -5.1 °C 29.88in /  1011.7hPa Calm   3.0mph /  4.8km/h 77% 0.00in /  0mm
13:05 29.7 °F /  -1.3 °C 23.1 °F /  -4.9 °C 29.87in /  1011.4hPa Calm   2.0mph /  3.2km/h 76% 0.00in /  0mm
13:10 30.2 °F /  -1 °C 22.9 °F /  -5.1 °C 29.87in /  1011.4hPa Calm     74% 0.00in /  0mm
13:14 30.2 °F /  -1 °C 21.9 °F /  -5.6 °C 29.87in /  1011.4hPa WNW 1.0mph /  1.6km/h 4.0mph /  6.4km/h 71% 0.00in /  0mm
13:20 30.1 °F /  -1.1 °C 21.5 °F /  -5.8 °C 29.87in /  1011.4hPa Calm   4.0mph /  6.4km/h 70% 0.00in /  0mm
13:25 30.1 °F /  -1.1 °C 21.5 °F /  -5.8 °C 29.87in /  1011.4hPa Calm   3.0mph /  4.8km/h 70% 0.00in /  0mm
13:30 30.1 °F /  -1.1 °C 21.5 °F /  -5.8 °C 29.86in /  1011.1hPa Calm   3.0mph /  4.8km/h 70% 0.00in /  0mm
13:40 30.2 °F /  -1 °C 21.3 °F /  -5.9 °C 29.86in /  1011.1hPa Calm   3.0mph /  4.8km/h 69% 0.00in /  0mm
13:45 30.3 °F /  -0.9 °C 21.4 °F /  -5.9 °C 29.86in /  1011.1hPa Calm   4.0mph /  6.4km/h 69% 0.00in /  0mm
13:50 30.5 °F /  -0.8 °C 21.5 °F /  -5.8 °C 29.86in /  1011.1hPa WNW 1.0mph /  1.6km/h 4.0mph /  6.4km/h 69% 0.00in /  0mm
13:55 30.5 °F /  -0.8 °C 20.9 °F /  -6.2 °C 29.86in /  1011.1hPa WNW 2.0mph /  3.2km/h 4.0mph /  6.4km/h 67% 0.00in /  0mm
14:00 30.5 °F /  -0.8 °C 20.9 °F /  -6.2 °C 29.86in /  1011.1hPa WNW 1.0mph /  1.6km/h 4.0mph /  6.4km/h 67% 0.00in /  0mm
14:05 30.4 °F /  -0.9 °C 20.8 °F /  -6.2 °C 29.86in /  1011.1hPa WNW 2.0mph /  3.2km/h 4.0mph /  6.4km/h 67% 0.00in /  0mm
14:10 30.3 °F /  -0.9 °C 20.7 °F /  -6.3 °C 29.86in /  1011.1hPa WNW 1.0mph /  1.6km/h 4.0mph /  6.4km/h 67% 0.00in /  0mm
14:15 30.3 °F /  -0.9 °C 20.3 °F /  -6.5 °C 29.86in /  1011.1hPa WNW 1.0mph /  1.6km/h 5.0mph /  8km/h 66% 0.00in /  0mm
14:20 30.5 °F /  -0.8 °C 20.9 °F /  -6.2 °C 29.86in /  1011.1hPa Calm   5.0mph /  8km/h 67% 0.00in /  0mm
14:25 30.8 °F /  -0.7 °C 20.4 °F /  -6.4 °C 29.85in /  1010.7hPa WNW 1.0mph /  1.6km/h 4.0mph /  6.4km/h 65% 0.00in /  0mm
14:30 30.9 °F /  -0.6 °C 20.2 °F /  -6.6 °C 29.85in /  1010.7hPa Calm   4.0mph /  6.4km/h 64% 0.00in /  0mm
14:35 31.1 °F /  -0.5 °C 20.3 °F /  -6.5 °C 29.85in /  1010.7hPa WNW 2.0mph /  3.2km/h 4.0mph /  6.4km/h 64% 0.00in /  0mm
14:40 31.2 °F /  -0.4 °C 20.1 °F /  -6.6 °C 29.85in /  1010.7hPa Calm   4.0mph /  6.4km/h 63% 0.00in /  0mm
14:50 31.4 °F /  -0.3 °C 20.6 °F /  -6.3 °C 29.86in /  1011.1hPa Calm   3.0mph /  4.8km/h 64% 0.00in /  0mm
14:55 31.4 °F /  -0.3 °C 20.3 °F /  -6.5 °C 29.86in /  1011.1hPa WNW 1.0mph /  1.6km/h 3.0mph /  4.8km/h 63% 0.00in /  0mm
15:00 31.4 °F /  -0.3 °C 19.9 °F /  -6.7 °C 29.86in /  1011.1hPa Calm   3.0mph /  4.8km/h 62% 0.00in /  0mm
15:04 31.4 °F /  -0.3 °C 19.9 °F /  -6.7 °C 29.86in /  1011.1hPa WNW 2.0mph /  3.2km/h 5.0mph /  8km/h 62% 0.00in /  0mm
15:10 31.4 °F /  -0.3 °C 19.5 °F /  -6.9 °C 29.86in /  1011.1hPa WNW 1.0mph /  1.6km/h 5.0mph /  8km/h 61% 0.00in /  0mm
15:15 31.4 °F /  -0.3 °C 19.9 °F /  -6.7 °C 29.86in /  1011.1hPa WNW 1.0mph /  1.6km/h 5.0mph /  8km/h 62% 0.00in /  0mm
15:20 31.4 °F /  -0.3 °C 19.9 °F /  -6.7 °C 29.86in /  1011.1hPa Calm   2.0mph /  3.2km/h 62% 0.00in /  0mm
15:30 31.4 °F /  -0.3 °C 19.9 °F /  -6.7 °C 29.86in /  1011.1hPa Calm   2.0mph /  3.2km/h 62% 0.00in /  0mm
15:35 31.4 °F /  -0.3 °C 20.6 °F /  -6.3 °C 29.86in /  1011.1hPa Calm     64% 0.00in /  0mm
15:40 31.4 °F /  -0.3 °C 20.6 °F /  -6.3 °C 29.86in /  1011.1hPa Calm     64% 0.00in /  0mm
15:45 31.4 °F /  -0.3 °C 19.9 °F /  -6.7 °C 29.86in /  1011.1hPa WNW 3.0mph /  4.8km/h 6.0mph /  9.7km/h 62% 0.00in /  0mm
15:50 31.4 °F /  -0.3 °C 19.5 °F /  -6.9 °C 29.86in /  1011.1hPa WSW 4.0mph /  6.4km/h 8.0mph /  12.9km/h 61% 0.00in /  0mm
15:55 31.4 °F /  -0.3 °C 19.9 °F /  -6.7 °C 29.86in /  1011.1hPa WSW 4.0mph /  6.4km/h 9.0mph /  14.5km/h 62% 0.00in /  0mm
16:00 31.6 °F /  -0.2 °C 19.7 °F /  -6.8 °C 29.86in /  1011.1hPa WSW 4.0mph /  6.4km/h 9.0mph /  14.5km/h 61% 0.00in /  0mm
16:05 31.7 °F /  -0.2 °C 19.8 °F /  -6.8 °C 29.86in /  1011.1hPa West 6.0mph /  9.7km/h 11.0mph /  17.7km/h 61% 0.00in /  0mm
16:10 31.9 °F /  -0.1 °C 20.0 °F /  -6.7 °C 29.86in /  1011.1hPa West 4.0mph /  6.4km/h 13.0mph /  20.9km/h 61% 0.00in /  0mm
16:15 32.0 °F /  0 °C 19.7 °F /  -6.8 °C 29.87in /  1011.4hPa West 7.0mph /  11.3km/h 13.0mph /  20.9km/h 60% 0.00in /  0mm
16:20 32.2 °F /  0.1 °C 20.3 °F /  -6.5 °C 29.86in /  1011.1hPa WSW 4.0mph /  6.4km/h 12.0mph /  19.3km/h 61% 0.00in /  0mm
16:25 32.5 °F /  0.3 °C 20.2 °F /  -6.6 °C 29.86in /  1011.1hPa West 5.0mph /  8km/h 11.0mph /  17.7km/h 60% 0.00in /  0mm
16:30 32.6 °F /  0.3 °C 20.3 °F /  -6.5 °C 29.86in /  1011.1hPa West 4.0mph /  6.4km/h 10.0mph /  16.1km/h 60% 0.00in /  0mm
16:35 32.6 °F /  0.3 °C 20.6 °F /  -6.3 °C 29.86in /  1011.1hPa WSW 4.0mph /  6.4km/h 10.0mph /  16.1km/h 61% 0.00in /  0mm
16:40 32.6 °F /  0.3 °C 20.3 °F /  -6.5 °C 29.86in /  1011.1hPa SW 4.0mph /  6.4km/h 9.0mph /  14.5km/h 60% 0.00in /  0mm
16:45 32.5 °F /  0.3 °C 20.2 °F /  -6.6 °C 29.87in /  1011.4hPa SW 4.0mph /  6.4km/h 9.0mph /  14.5km/h 60% 0.00in /  0mm
16:50 32.3 °F /  0.2 °C 20.7 °F /  -6.3 °C 29.87in /  1011.4hPa Calm   9.0mph /  14.5km/h 62% 0.00in /  0mm
16:55 32.1 °F /  0.1 °C 20.2 °F /  -6.6 °C 29.87in /  1011.4hPa WSW 4.0mph /  6.4km/h 6.0mph /  9.7km/h 61% 0.00in /  0mm
17:00 32.1 °F /  0.1 °C 20.2 °F /  -6.6 °C 29.87in /  1011.4hPa SW 2.0mph /  3.2km/h 6.0mph /  9.7km/h 61% 0.00in /  0mm
17:05 32.1 °F /  0.1 °C 20.5 °F /  -6.4 °C 29.87in /  1011.4hPa WSW 3.0mph /  4.8km/h 6.0mph /  9.7km/h 62% 0.00in /  0mm
17:10 32.2 °F /  0.1 °C 20.3 °F /  -6.5 °C 29.87in /  1011.4hPa SW 5.0mph /  8km/h 11.0mph /  17.7km/h 61% 0.00in /  0mm
17:15 32.2 °F /  0.1 °C 20.3 °F /  -6.5 °C 29.88in /  1011.7hPa WSW 5.0mph /  8km/h 11.0mph /  17.7km/h 61% 0.00in /  0mm
17:20 32.2 °F /  0.1 °C 20.3 °F /  -6.5 °C 29.88in /  1011.7hPa WSW 4.0mph /  6.4km/h 8.0mph /  12.9km/h 61% 0.00in /  0mm
17:25 32.1 °F /  0.1 °C 20.2 °F /  -6.6 °C 29.87in /  1011.4hPa WSW 4.0mph /  6.4km/h 8.0mph /  12.9km/h 61% 0.00in /  0mm
17:30 32.1 °F /  0.1 °C 20.2 °F /  -6.6 °C 29.88in /  1011.7hPa WSW 4.0mph /  6.4km/h 7.0mph /  11.3km/h 61% 0.00in /  0mm
17:35 32.1 °F /  0.1 °C 20.2 °F /  -6.6 °C 29.88in /  1011.7hPa SW 3.0mph /  4.8km/h 9.0mph /  14.5km/h 61% 0.00in /  0mm
17:40 32.1 °F /  0.1 °C 20.5 °F /  -6.4 °C 29.88in /  1011.7hPa WSW 3.0mph /  4.8km/h 13.0mph /  20.9km/h 62% 0.00in /  0mm
17:45 31.9 °F /  -0.1 °C 20.0 °F /  -6.7 °C 29.88in /  1011.7hPa WSW 4.0mph /  6.4km/h 13.0mph /  20.9km/h 61% 0.00in /  0mm
17:50 31.9 °F /  -0.1 °C 20.4 °F /  -6.4 °C 29.88in /  1011.7hPa SW 4.0mph /  6.4km/h 10.0mph /  16.1km/h 62% 0.00in /  0mm
17:55 32.0 °F /  0 °C 20.1 °F /  -6.6 °C 29.88in /  1011.7hPa SW 5.0mph /  8km/h 10.0mph /  16.1km/h 61% 0.00in /  0mm
18:00 32.0 °F /  0 °C 20.5 °F /  -6.4 °C 29.88in /  1011.7hPa SSW 4.0mph /  6.4km/h 9.0mph /  14.5km/h 62% 0.00in /  0mm
18:05 31.9 °F /  -0.1 °C 20.4 °F /  -6.4 °C 29.88in /  1011.7hPa SW 4.0mph /  6.4km/h 9.0mph /  14.5km/h 62% 0.00in /  0mm
18:10 31.9 °F /  -0.1 °C 20.4 °F /  -6.4 °C 29.88in /  1011.7hPa SW 5.0mph /  8km/h 9.0mph /  14.5km/h 62% 0.00in /  0mm
18:15 31.9 °F /  -0.1 °C 20.4 °F /  -6.4 °C 29.88in /  1011.7hPa SW 6.0mph /  9.7km/h 10.0mph /  16.1km/h 62% 0.00in /  0mm
18:20 31.9 °F /  -0.1 °C 20.4 °F /  -6.4 °C 29.88in /  1011.7hPa SSW 5.0mph /  8km/h 10.0mph /  16.1km/h 62% 0.00in /  0mm
18:25 31.8 °F /  -0.1 °C 20.6 °F /  -6.3 °C 29.89in /  1012.1hPa WSW 4.0mph /  6.4km/h 10.0mph /  16.1km/h 63% 0.00in /  0mm
18:30 31.8 °F /  -0.1 °C 20.3 °F /  -6.5 °C 29.89in /  1012.1hPa SW 7.0mph /  11.3km/h 13.0mph /  20.9km/h 62% 0.00in /  0mm
18:35 31.7 °F /  -0.2 °C 20.5 °F /  -6.4 °C 29.89in /  1012.1hPa SW 7.0mph /  11.3km/h 13.0mph /  20.9km/h 63% 0.00in /  0mm
18:40 31.7 °F /  -0.2 °C 20.5 °F /  -6.4 °C 29.89in /  1012.1hPa SW 6.0mph /  9.7km/h 13.0mph /  20.9km/h 63% 0.00in /  0mm
18:45 31.6 °F /  -0.2 °C 20.5 °F /  -6.4 °C 29.89in /  1012.1hPa SW 6.0mph /  9.7km/h 13.0mph /  20.9km/h 63% 0.00in /  0mm
18:50 31.5 °F /  -0.3 °C 20.7 °F /  -6.3 °C 29.89in /  1012.1hPa SW 5.0mph /  8km/h 11.0mph /  17.7km/h 64% 0.00in /  0mm
18:55 31.5 °F /  -0.3 °C 20.7 °F /  -6.3 °C 29.89in /  1012.1hPa SW 4.0mph /  6.4km/h 11.0mph /  17.7km/h 64% 0.00in /  0mm
19:00 31.4 °F /  -0.3 °C 20.6 °F /  -6.3 °C 29.90in /  1012.4hPa WSW 5.0mph /  8km/h 11.0mph /  17.7km/h 64% 0.00in /  0mm
19:05 31.4 °F /  -0.3 °C 21.0 °F /  -6.1 °C 29.90in /  1012.4hPa WSW 4.0mph /  6.4km/h 11.0mph /  17.7km/h 65% 0.00in /  0mm
19:10 31.3 °F /  -0.4 °C 20.9 °F /  -6.2 °C 29.90in /  1012.4hPa WNW 5.0mph /  8km/h 8.0mph /  12.9km/h 65% 0.00in /  0mm
19:15 31.3 °F /  -0.4 °C 21.3 °F /  -5.9 °C 29.90in /  1012.4hPa WNW 3.0mph /  4.8km/h 8.0mph /  12.9km/h 66% 0.00in /  0mm
19:20 31.1 °F /  -0.5 °C 21.4 °F /  -5.9 °C 29.90in /  1012.4hPa West 4.0mph /  6.4km/h 8.0mph /  12.9km/h 67% 0.00in /  0mm
19:25 30.9 °F /  -0.6 °C 21.9 °F /  -5.6 °C 29.90in /  1012.4hPa WNW 3.0mph /  4.8km/h 7.0mph /  11.3km/h 69% 0.00in /  0mm
19:30 30.7 °F /  -0.7 °C 22.4 °F /  -5.3 °C 29.90in /  1012.4hPa WNW 3.0mph /  4.8km/h 7.0mph /  11.3km/h 71% 0.00in /  0mm
19:40 30.1 °F /  -1.1 °C 22.5 °F /  -5.3 °C 29.91in /  1012.8hPa Calm   5.0mph /  8km/h 73% 0.00in /  0mm
19:50 29.7 °F /  -1.3 °C 22.8 °F /  -5.1 °C 29.91in /  1012.8hPa WNW 3.0mph /  4.8km/h 5.0mph /  8km/h 75% 0.00in /  0mm
19:55 29.6 °F /  -1.3 °C 23.0 °F /  -5 °C 29.91in /  1012.8hPa WNW 2.0mph /  3.2km/h 6.0mph /  9.7km/h 76% 0.00in /  0mm
20:00 29.6 °F /  -1.3 °C 23.3 °F /  -4.8 °C 29.91in /  1012.8hPa Calm   6.0mph /  9.7km/h 77% 0.00in /  0mm
20:05 29.5 °F /  -1.4 °C 23.2 °F /  -4.9 °C 29.91in /  1012.8hPa WNW 1.0mph /  1.6km/h 3.0mph /  4.8km/h 77% 0.00in /  0mm
20:10 29.4 °F /  -1.4 °C 23.1 °F /  -4.9 °C 29.91in /  1012.8hPa WNW 1.0mph /  1.6km/h 4.0mph /  6.4km/h 77% 0.00in /  0mm
20:15 29.4 °F /  -1.4 °C 23.1 °F /  -4.9 °C 29.91in /  1012.8hPa WNW 1.0mph /  1.6km/h 4.0mph /  6.4km/h 77% 0.00in /  0mm
20:20 29.2 °F /  -1.6 °C 23.2 °F /  -4.9 °C 29.91in /  1012.8hPa Calm   3.0mph /  4.8km/h 78% 0.00in /  0mm
20:25 29.2 °F /  -1.6 °C 23.2 °F /  -4.9 °C 29.91in /  1012.8hPa WNW 1.0mph /  1.6km/h 3.0mph /  4.8km/h 78% 0.00in /  0mm
20:30 29.1 °F /  -1.6 °C 23.1 °F /  -4.9 °C 29.91in /  1012.8hPa Calm   3.0mph /  4.8km/h 78% 0.00in /  0mm
20:35 29.1 °F /  -1.6 °C 23.1 °F /  -4.9 °C 29.91in /  1012.8hPa WNW 1.0mph /  1.6km/h 3.0mph /  4.8km/h 78% 0.00in /  0mm
20:40 29.1 °F /  -1.6 °C 23.1 °F /  -4.9 °C 29.91in /  1012.8hPa WNW 1.0mph /  1.6km/h 4.0mph /  6.4km/h 78% 0.00in /  0mm
20:45 29.2 °F /  -1.6 °C 23.2 °F /  -4.9 °C 29.91in /  1012.8hPa WNW 2.0mph /  3.2km/h 5.0mph /  8km/h 78% 0.00in /  0mm
20:50 29.2 °F /  -1.6 °C 23.2 °F /  -4.9 °C 29.90in /  1012.4hPa WNW 1.0mph /  1.6km/h 5.0mph /  8km/h 78% 0.00in /  0mm
20:55 29.1 °F /  -1.6 °C 23.1 °F /  -4.9 °C 29.90in /  1012.4hPa Calm   3.0mph /  4.8km/h 78% 0.00in /  0mm
21:00 29.0 °F /  -1.7 °C 23.0 °F /  -5 °C 29.90in /  1012.4hPa WNW 2.0mph /  3.2km/h 4.0mph /  6.4km/h 78% 0.00in /  0mm
21:05 28.8 °F /  -1.8 °C 22.8 °F /  -5.1 °C 29.90in /  1012.4hPa WNW 1.0mph /  1.6km/h 4.0mph /  6.4km/h 78% 0.00in /  0mm
21:10 28.7 °F /  -1.8 °C 22.7 °F /  -5.2 °C 29.90in /  1012.4hPa WNW 1.0mph /  1.6km/h 4.0mph /  6.4km/h 78% 0.00in /  0mm
21:15 28.7 °F /  -1.8 °C 23.0 °F /  -5 °C 29.90in /  1012.4hPa WNW 2.0mph /  3.2km/h 4.0mph /  6.4km/h 79% 0.00in /  0mm
21:19 28.8 °F /  -1.8 °C 23.1 °F /  -4.9 °C 29.90in /  1012.4hPa WNW 2.0mph /  3.2km/h 4.0mph /  6.4km/h 79% 0.00in /  0mm
21:25 28.9 °F /  -1.7 °C 23.2 °F /  -4.9 °C 29.90in /  1012.4hPa WNW 3.0mph /  4.8km/h 6.0mph /  9.7km/h 79% 0.00in /  0mm
21:30 29.1 °F /  -1.6 °C 23.1 °F /  -4.9 °C 29.90in /  1012.4hPa WNW 3.0mph /  4.8km/h 6.0mph /  9.7km/h 78% 0.00in /  0mm
21:40 29.2 °F /  -1.6 °C 23.5 °F /  -4.7 °C 29.90in /  1012.4hPa WNW 4.0mph /  6.4km/h 8.0mph /  12.9km/h 79% 0.00in /  0mm
21:45 29.1 °F /  -1.6 °C 23.7 °F /  -4.6 °C 29.90in /  1012.4hPa West 3.0mph /  4.8km/h 8.0mph /  12.9km/h 80% 0.00in /  0mm
21:50 29.0 °F /  -1.7 °C 23.6 °F /  -4.7 °C 29.90in /  1012.4hPa WNW 2.0mph /  3.2km/h 8.0mph /  12.9km/h 80% 0.00in /  0mm
21:55 28.8 °F /  -1.8 °C 23.7 °F /  -4.6 °C 29.90in /  1012.4hPa WNW 2.0mph /  3.2km/h 6.0mph /  9.7km/h 81% 0.00in /  0mm
22:00 28.7 °F /  -1.8 °C 23.6 °F /  -4.7 °C 29.90in /  1012.4hPa West 3.0mph /  4.8km/h 5.0mph /  8km/h 81% 0.00in /  0mm
22:05 28.6 °F /  -1.9 °C 23.8 °F /  -4.6 °C 29.90in /  1012.4hPa Calm   5.0mph /  8km/h 82% 0.00in /  0mm
22:10 28.5 °F /  -1.9 °C 23.7 °F /  -4.6 °C 29.90in /  1012.4hPa WSW 3.0mph /  4.8km/h 5.0mph /  8km/h 82% 0.00in /  0mm
22:15 28.4 °F /  -2 °C 23.9 °F /  -4.5 °C 29.90in /  1012.4hPa WSW 1.0mph /  1.6km/h 5.0mph /  8km/h 83% 0.00in /  0mm
22:20 28.3 °F /  -2.1 °C 23.8 °F /  -4.6 °C 29.90in /  1012.4hPa WSW 1.0mph /  1.6km/h 4.0mph /  6.4km/h 83% 0.00in /  0mm
22:30 28.2 °F /  -2.1 °C 24.0 °F /  -4.4 °C 29.90in /  1012.4hPa WSW 1.0mph /  1.6km/h 3.0mph /  4.8km/h 84% 0.00in /  0mm
22:35 28.2 °F /  -2.1 °C 24.0 °F /  -4.4 °C 29.90in /  1012.4hPa Calm   3.0mph /  4.8km/h 84% 0.00in /  0mm
22:40 28.1 °F /  -2.2 °C 23.9 °F /  -4.5 °C 29.90in /  1012.4hPa Calm   2.0mph /  3.2km/h 84% 0.00in /  0mm
22:45 28.2 °F /  -2.1 °C 24.3 °F /  -4.3 °C 29.90in /  1012.4hPa Calm   3.0mph /  4.8km/h 85% 0.00in /  0mm
22:50 28.2 °F /  -2.1 °C 24.3 °F /  -4.3 °C 29.90in /  1012.4hPa WSW 2.0mph /  3.2km/h 3.0mph /  4.8km/h 85% 0.00in /  0mm
22:54 28.2 °F /  -2.1 °C 24.3 °F /  -4.3 °C 29.90in /  1012.4hPa WSW 2.0mph /  3.2km/h 5.0mph /  8km/h 85% 0.00in /  0mm
23:00 28.2 °F /  -2.1 °C 24.3 °F /  -4.3 °C 29.90in /  1012.4hPa WSW 1.0mph /  1.6km/h 5.0mph /  8km/h 85% 0.00in /  0mm
23:05 28.2 °F /  -2.1 °C 24.3 °F /  -4.3 °C 29.90in /  1012.4hPa WSW 2.0mph /  3.2km/h 4.0mph /  6.4km/h 85% 0.00in /  0mm
23:10 28.2 °F /  -2.1 °C 24.3 °F /  -4.3 °C 29.90in /  1012.4hPa WSW 1.0mph /  1.6km/h 5.0mph /  8km/h 85% 0.00in /  0mm
23:15 28.2 °F /  -2.1 °C 24.3 °F /  -4.3 °C 29.90in /  1012.4hPa Calm   5.0mph /  8km/h 85% 0.00in /  0mm
23:20 28.3 °F /  -2.1 °C 24.1 °F /  -4.4 °C 29.90in /  1012.4hPa WSW 1.0mph /  1.6km/h 4.0mph /  6.4km/h 84% 0.00in /  0mm
23:30 28.2 °F /  -2.1 °C 24.0 °F /  -4.4 °C 29.90in /  1012.4hPa WSW 1.0mph /  1.6km/h 3.0mph /  4.8km/h 84% 0.00in /  0mm
23:35 28.3 °F /  -2.1 °C 24.1 °F /  -4.4 °C 29.90in /  1012.4hPa WSW 1.0mph /  1.6km/h 6.0mph /  9.7km/h 84% 0.00in /  0mm
23:40 28.3 °F /  -2.1 °C 24.1 °F /  -4.4 °C 29.90in /  1012.4hPa WSW 1.0mph /  1.6km/h 6.0mph /  9.7km/h 84% 0.00in /  0mm
23:44 28.4 °F /  -2 °C 24.5 °F /  -4.2 °C 29.90in /  1012.4hPa Calm   5.0mph /  8km/h 85% 0.00in /  0mm
23:50 28.3 °F /  -2.1 °C 24.4 °F /  -4.2 °C 29.90in /  1012.4hPa WSW 1.0mph /  1.6km/h 4.0mph /  6.4km/h 85% 0.00in /  0mm
23:54 28.3 °F /  -2.1 °C 24.4 °F /  -4.2 °C 29.90in /  1012.4hPa Calm   4.0mph /  6.4km/h 85% 0.00in /  0mm
Westford Weather
Compliments of Weather Underground

 
 
Current Radar Loop:

Copyright © WestfordWeather.net 2007-2014. All rights reserved.